createdAt,value
2018-02-21T00:01:17.760Z,16.33
2018-02-21T00:03:44.509Z,17.77
2018-02-21T00:06:11.009Z,18.10
2018-02-21T00:08:37.391Z,17.00
2018-02-21T00:11:04.262Z,19.23
2018-02-21T00:13:30.594Z,19.10
2018-02-21T00:15:56.999Z,18.03
2018-02-21T00:18:24.369Z,18.23
2018-02-21T00:20:51.593Z,18.37
2018-02-21T00:23:17.988Z,18.13
2018-02-21T00:25:45.519Z,18.70
2018-02-21T00:28:11.952Z,17.00
2018-02-21T00:30:38.362Z,17.80
2018-02-21T00:33:04.788Z,19.93
2018-02-21T00:35:31.158Z,16.07
2018-02-21T00:37:57.985Z,16.93
2018-02-21T00:40:25.191Z,16.50
2018-02-21T00:42:51.545Z,17.37
2018-02-21T00:45:18.702Z,16.20
2018-02-21T00:47:45.166Z,17.73
2018-02-21T00:50:12.435Z,16.87
2018-02-21T00:52:38.901Z,17.77
2018-02-21T00:55:05.280Z,16.67
2018-02-21T00:57:31.677Z,17.17
2018-02-21T00:59:58.468Z,16.20
2018-02-21T01:02:27.450Z,17.30
2018-02-21T01:04:54.954Z,17.40
2018-02-21T01:07:21.382Z,16.90
2018-02-21T01:09:48.594Z,16.57
2018-02-21T01:12:14.953Z,16.60
2018-02-21T01:14:41.401Z,16.27
2018-02-21T01:17:08.579Z,17.53
2018-02-21T01:19:34.984Z,17.43
2018-02-21T01:22:02.187Z,16.70
2018-02-21T01:24:29.403Z,17.10
2018-02-21T01:26:55.924Z,14.87
2018-02-21T01:29:22.966Z,13.90
2018-02-21T01:31:49.522Z,14.37
2018-02-21T01:34:16.196Z,15.07
2018-02-21T01:36:42.622Z,15.43
2018-02-21T01:39:09.392Z,15.67
2018-02-21T01:41:35.728Z,15.73
2018-02-21T01:44:02.361Z,16.70
2018-02-21T01:46:29.399Z,16.43
2018-02-21T01:48:55.909Z,16.47
2018-02-21T01:51:22.569Z,15.23
2018-02-21T01:53:49.020Z,16.27
2018-02-21T01:56:17.115Z,14.40
2018-02-21T01:58:44.022Z,15.20
2018-02-21T02:01:10.456Z,17.00
2018-02-21T02:03:36.981Z,15.90
2018-02-21T02:06:03.317Z,16.87
2018-02-21T02:08:29.923Z,15.50
2018-02-21T02:10:56.279Z,18.10
2018-02-21T02:13:23.584Z,17.10
2018-02-21T02:15:51.124Z,16.90
2018-02-21T02:18:17.855Z,16.50
2018-02-21T02:20:44.416Z,19.80
2018-02-21T02:23:10.869Z,15.90
2018-02-21T02:25:39.270Z,14.70
2018-02-21T02:28:05.845Z,16.70
2018-02-21T02:30:32.455Z,16.87
2018-02-21T02:32:59.916Z,14.77
2018-02-21T02:35:26.301Z,14.80
2018-02-21T02:37:55.193Z,15.37
2018-02-21T02:40:21.934Z,15.43
2018-02-21T02:42:49.079Z,16.50
2018-02-21T02:45:15.550Z,16.60
2018-02-21T02:47:41.924Z,17.37
2018-02-21T02:50:08.279Z,16.23
2018-02-21T02:52:35.400Z,14.60
2018-02-21T02:55:01.804Z,15.60
2018-02-21T02:57:28.197Z,17.27
2018-02-21T02:59:54.592Z,16.37
2018-02-21T03:02:21.053Z,16.70
2018-02-21T03:04:47.481Z,15.73
2018-02-21T03:07:14.330Z,17.47
2018-02-21T03:09:41.576Z,15.10
2018-02-21T03:12:08.192Z,15.50
2018-02-21T03:14:34.692Z,16.60
2018-02-21T03:17:01.938Z,15.23
2018-02-21T03:19:28.576Z,15.10
2018-02-21T03:21:55.768Z,16.30
2018-02-21T03:24:22.470Z,17.10
2018-02-21T03:26:48.924Z,18.17
2018-02-21T03:29:15.510Z,15.83
2018-02-21T03:31:42.333Z,16.93
2018-02-21T03:34:09.384Z,16.47
2018-02-21T03:36:36.128Z,17.40
2018-02-21T03:39:02.890Z,17.20
2018-02-21T03:41:29.412Z,16.47
2018-02-21T03:43:56.041Z,16.60
2018-02-21T03:46:22.604Z,16.13
2018-02-21T03:48:49.195Z,14.60
2018-02-21T03:51:17.463Z,17.03
2018-02-21T03:53:43.899Z,15.67
2018-02-21T03:56:10.488Z,16.10
2018-02-21T03:58:37.411Z,17.20
2018-02-21T04:01:04.282Z,17.70
2018-02-21T04:03:30.728Z,17.87
2018-02-21T04:05:57.212Z,18.13
2018-02-21T04:08:23.752Z,16.97
2018-02-21T04:10:50.192Z,17.50
2018-02-21T04:13:16.712Z,18.70
2018-02-21T04:15:43.893Z,17.30
2018-02-21T04:18:10.297Z,19.80
2018-02-21T04:20:36.836Z,21.37
2018-02-21T04:23:04.920Z,18.00
2018-02-21T04:25:31.328Z,17.90
2018-02-21T04:27:57.871Z,18.00
2018-02-21T04:30:25.362Z,18.83
2018-02-21T04:32:52.790Z,20.80
2018-02-21T04:35:19.922Z,20.80
2018-02-21T04:37:46.423Z,19.87
2018-02-21T04:40:13.275Z,21.37
2018-02-21T04:42:39.667Z,20.33
2018-02-21T04:48:03.519Z,19.87
2018-02-21T04:50:30.424Z,22.93
2018-02-21T04:52:57.113Z,21.53
2018-02-21T04:55:26.925Z,20.80
2018-02-21T04:57:56.250Z,23.00
2018-02-21T05:00:24.424Z,20.10
2018-02-21T05:02:51.666Z,21.90
2018-02-21T05:05:18.413Z,20.40
2018-02-21T05:07:45.129Z,21.50
2018-02-21T05:10:12.648Z,20.07
2018-02-21T05:12:39.406Z,20.40
2018-02-21T05:15:06.518Z,23.40
2018-02-21T05:17:34.616Z,20.77
2018-02-21T05:20:02.844Z,23.00
2018-02-21T05:22:29.203Z,23.30
2018-02-21T05:24:56.640Z,23.67
2018-02-21T05:27:23.852Z,22.80
2018-02-21T05:29:50.285Z,24.50
2018-02-21T05:32:16.710Z,23.47
2018-02-21T05:34:43.361Z,23.97
2018-02-21T05:37:09.821Z,24.60
2018-02-21T05:39:36.564Z,24.50
2018-02-21T05:42:04.099Z,24.70
2018-02-21T05:44:30.458Z,22.30
2018-02-21T05:46:58.734Z,24.57
2018-02-21T05:49:26.657Z,25.67
2018-02-21T05:51:53.778Z,24.73
2018-02-21T05:54:20.208Z,25.97
2018-02-21T05:56:47.727Z,25.53
2018-02-21T05:59:15.802Z,27.57
2018-02-21T06:01:43.007Z,26.33
2018-02-21T06:04:10.319Z,23.97
2018-02-21T06:06:38.645Z,26.20
2018-02-21T06:09:05.739Z,26.50
2018-02-21T06:11:33.576Z,28.63
2018-02-21T06:14:00.911Z,29.80
2018-02-21T06:16:35.572Z,27.30
2018-02-21T06:19:02.808Z,30.23
2018-02-21T06:21:33.177Z,29.90
2018-02-21T06:24:01.294Z,28.10
2018-02-21T06:26:29.272Z,30.23
2018-02-21T06:28:57.600Z,28.80
2018-02-21T06:31:25.633Z,29.07
2018-02-21T06:33:52.030Z,28.37
2018-02-21T06:36:18.497Z,29.50
2018-02-21T06:38:45.286Z,28.43
2018-02-21T06:41:11.740Z,28.27
2018-02-21T06:43:38.533Z,28.77
2018-02-21T06:46:06.393Z,28.07
2018-02-21T06:48:32.836Z,29.60
2018-02-21T06:50:59.645Z,27.73
2018-02-21T06:53:26.424Z,28.43
2018-02-21T06:55:53.273Z,27.20
2018-02-21T06:58:19.836Z,29.50
2018-02-21T07:00:48.400Z,27.90
2018-02-21T07:03:15.153Z,29.40
2018-02-21T07:05:42.390Z,32.47
2018-02-21T07:08:09.236Z,28.47
2018-02-21T07:10:36.491Z,29.53
2018-02-21T07:13:03.696Z,31.40
2018-02-21T07:15:31.819Z,32.03
2018-02-21T07:17:58.577Z,32.23
2018-02-21T07:20:25.449Z,31.20
2018-02-21T07:22:51.830Z,29.13
2018-02-21T07:25:18.971Z,29.30
2018-02-21T07:27:45.724Z,34.00
2018-02-21T07:30:12.849Z,32.33
2018-02-21T07:32:39.220Z,30.00
2018-02-21T07:35:05.634Z,30.83
2018-02-21T07:37:32.856Z,27.90
2018-02-21T07:40:01.000Z,31.50
2018-02-21T07:42:27.373Z,31.03
2018-02-21T07:44:55.457Z,29.50
2018-02-21T07:47:23.608Z,30.27
2018-02-21T07:49:50.038Z,30.63
2018-02-21T07:52:17.554Z,28.00
2018-02-21T07:54:44.244Z,32.80
2018-02-21T07:57:10.711Z,30.87
2018-02-21T07:59:37.070Z,30.57
2018-02-21T08:02:03.473Z,28.80
2018-02-21T08:04:31.064Z,28.47
2018-02-21T08:06:59.028Z,28.73
2018-02-21T08:09:26.141Z,28.47
2018-02-21T08:11:54.191Z,27.23
2018-02-21T08:14:22.281Z,26.37
2018-02-21T08:16:48.740Z,26.10
2018-02-21T08:19:15.216Z,26.00
2018-02-21T08:21:42.746Z,24.97
2018-02-21T08:24:09.910Z,24.07
2018-02-21T08:26:36.370Z,24.73
2018-02-21T08:29:03.221Z,24.87
2018-02-21T08:31:29.681Z,23.90
2018-02-21T08:33:57.113Z,23.57
2018-02-21T08:36:23.698Z,24.37
2018-02-21T08:38:50.157Z,23.03
2018-02-21T08:41:18.077Z,21.90
2018-02-21T08:43:44.883Z,22.57
2018-02-21T08:46:11.329Z,22.30
2018-02-21T08:48:37.834Z,20.93
2018-02-21T08:53:37.718Z,22.87
2018-02-21T08:56:04.585Z,22.57
2018-02-21T08:58:31.902Z,22.20
2018-02-21T09:00:59.057Z,20.07
2018-02-21T09:03:25.409Z,22.23
2018-02-21T09:05:51.774Z,21.40
2018-02-21T09:08:18.949Z,20.97
2018-02-21T09:10:45.783Z,20.30
2018-02-21T09:13:13.610Z,20.33
2018-02-21T09:15:40.760Z,18.53
2018-02-21T09:18:08.641Z,20.67
2018-02-21T09:20:35.115Z,19.87
2018-02-21T09:23:01.609Z,18.20
2018-02-21T09:25:28.425Z,18.53
2018-02-21T09:27:54.865Z,18.80
2018-02-21T09:30:21.736Z,18.13
2018-02-21T09:32:48.543Z,16.40
2018-02-21T09:35:15.633Z,18.70
2018-02-21T09:37:42.350Z,18.47
2018-02-21T09:40:09.935Z,16.30
2018-02-21T09:42:36.311Z,19.27
2018-02-21T09:45:03.144Z,18.40
2018-02-21T09:47:29.612Z,17.80
2018-02-21T09:49:55.984Z,17.23
2018-02-21T09:52:23.848Z,15.27
2018-02-21T09:54:50.965Z,17.97
2018-02-21T09:57:18.204Z,17.17
2018-02-21T09:59:44.642Z,16.83
2018-02-21T10:02:12.724Z,18.23
2018-02-21T10:04:40.818Z,17.40
2018-02-21T10:07:07.250Z,17.73
2018-02-21T10:09:35.405Z,17.60
2018-02-21T10:12:01.753Z,17.10
2018-02-21T10:14:28.130Z,18.33
2018-02-21T10:16:55.294Z,17.10
2018-02-21T10:19:21.691Z,20.87
2018-02-21T10:21:48.441Z,20.10
2018-02-21T10:24:14.882Z,19.17
2018-02-21T10:26:41.699Z,18.63
2018-02-21T10:29:08.119Z,18.40
2018-02-21T10:31:35.637Z,17.13
2018-02-21T10:34:02.380Z,16.67
2018-02-21T10:36:28.747Z,19.10
2018-02-21T18:58:54.238Z,14.80
2018-02-21T19:01:23.329Z,15.93
2018-02-21T19:03:51.743Z,16.90
2018-02-21T19:06:19.318Z,17.87
2018-02-21T19:08:48.441Z,17.90
2018-02-21T19:11:15.008Z,19.30
2018-02-21T19:13:43.809Z,19.20
2018-02-21T19:16:11.121Z,17.80
2018-02-21T19:18:40.045Z,16.90
2018-02-21T19:21:08.170Z,18.60
2018-02-21T19:23:36.082Z,18.27
2018-02-21T19:26:02.947Z,19.80
2018-02-21T19:28:30.272Z,19.70
2018-02-21T19:30:56.749Z,19.97
2018-02-21T19:33:25.030Z,19.30
2018-02-21T19:35:51.606Z,20.97
2018-02-21T19:38:19.012Z,22.13
2018-02-21T19:40:45.515Z,21.27
2018-02-21T19:43:12.841Z,19.57
2018-02-21T19:45:39.831Z,20.77
2018-02-21T19:48:06.705Z,20.60
2018-02-21T19:50:38.486Z,21.07
2018-02-21T19:53:07.685Z,19.40
2018-02-21T19:55:35.693Z,18.20
2018-02-21T19:58:03.049Z,18.67
2018-02-21T20:00:29.909Z,18.80
2018-02-21T20:02:58.470Z,20.40
2018-02-21T20:05:27.148Z,19.77
2018-02-21T20:07:55.946Z,20.40
2018-02-21T20:10:23.097Z,21.07
2018-02-21T20:12:50.193Z,22.03
2018-02-21T20:15:17.702Z,21.00
2018-02-21T20:17:46.499Z,23.90
2018-02-21T20:20:13.946Z,22.53
2018-02-21T20:22:42.367Z,22.20
2018-02-21T20:25:10.809Z,22.57
2018-02-21T20:27:37.637Z,24.03
2018-02-21T20:30:05.611Z,24.40
2018-02-21T20:32:32.743Z,28.90
2018-02-21T20:34:59.453Z,24.80
2018-02-21T20:37:27.161Z,23.70
2018-02-21T20:39:54.759Z,23.00
2018-02-21T20:42:23.213Z,24.97
2018-02-21T20:44:51.034Z,27.93
2018-02-21T20:47:18.646Z,27.27
2018-02-21T20:49:47.570Z,25.47
2018-02-21T20:52:16.081Z,26.50
2018-02-21T20:54:48.365Z,25.63
2018-02-21T20:57:19.079Z,25.00
2018-02-21T20:59:46.548Z,25.93
2018-02-21T21:02:16.341Z,27.40
2018-02-21T21:04:43.887Z,26.90
2018-02-21T21:07:11.908Z,25.03
2018-02-21T21:09:44.631Z,24.10
2018-02-21T21:12:11.833Z,25.30
2018-02-21T21:14:39.296Z,25.17
2018-02-21T21:17:05.754Z,23.27
2018-02-21T21:19:32.856Z,24.83
2018-02-21T21:21:59.234Z,25.73
2018-02-21T21:24:25.587Z,24.77
2018-02-21T21:26:52.546Z,24.00
2018-02-21T21:29:19.445Z,25.90
2018-02-21T21:31:48.499Z,23.30
2018-02-21T21:34:15.368Z,26.07
2018-02-21T21:36:41.832Z,24.20
2018-02-21T21:39:11.894Z,27.50
2018-02-21T21:41:38.331Z,24.63
2018-02-21T21:44:05.483Z,25.10
2018-02-21T21:46:34.545Z,23.37
2018-02-21T21:49:01.318Z,23.67
2018-02-21T21:51:27.736Z,23.80
2018-02-21T21:53:54.366Z,24.50
2018-02-21T21:56:22.336Z,23.70
2018-02-21T21:58:51.985Z,24.30
2018-02-21T22:01:21.791Z,23.77
2018-02-21T22:03:49.029Z,25.13
2018-02-21T22:06:16.360Z,25.77
2018-02-21T22:08:42.902Z,22.40
2018-02-21T22:11:09.394Z,23.57
2018-02-21T22:13:35.782Z,23.60
2018-02-21T22:16:02.217Z,22.50
2018-02-21T22:18:28.630Z,24.50
2018-02-21T22:20:55.150Z,23.10
2018-02-21T22:23:22.019Z,25.57
2018-02-21T22:25:48.935Z,23.10
2018-02-21T22:28:15.409Z,26.00
2018-02-21T22:30:42.984Z,26.27
2018-02-21T22:33:09.518Z,23.90
2018-02-21T22:35:37.060Z,25.17
2018-02-21T22:38:04.436Z,23.30
2018-02-21T22:40:30.853Z,23.20
2018-02-21T22:42:57.284Z,23.17
2018-02-21T22:45:24.040Z,23.67
2018-02-21T22:47:51.160Z,24.83
2018-02-21T22:50:17.578Z,23.77
2018-02-21T22:52:44.073Z,22.00
2018-02-21T22:55:10.437Z,22.40
2018-02-21T22:57:37.296Z,24.57
2018-02-21T23:00:04.575Z,22.60
2018-02-21T23:02:31.446Z,23.37
2018-02-21T23:04:58.837Z,22.60
2018-02-21T23:07:25.613Z,24.07
2018-02-21T23:09:51.991Z,23.73
2018-02-21T23:12:18.377Z,23.37
2018-02-21T23:14:45.177Z,25.00
2018-02-21T23:17:11.723Z,23.33
2018-02-21T23:19:39.832Z,20.93
2018-02-21T23:22:08.144Z,23.80
2018-02-21T23:24:34.589Z,22.17
2018-02-21T23:27:01.813Z,21.30
2018-02-21T23:29:28.735Z,22.10
2018-02-21T23:31:55.165Z,23.00
2018-02-21T23:34:21.576Z,18.60
2018-02-21T23:36:48.093Z,21.10
2018-02-21T23:39:15.313Z,21.40
2018-02-21T23:41:41.722Z,23.60
2018-02-21T23:44:08.173Z,23.43
2018-02-21T23:46:34.792Z,22.93
2018-02-21T23:49:01.225Z,22.50
2018-02-21T23:51:28.111Z,23.50
2018-02-21T23:53:55.276Z,22.03
2018-02-21T23:56:21.770Z,23.00
2018-02-21T23:58:48.588Z,21.30
